createdAt,value
2022-11-09T00:01:04.963Z,6.50
2022-11-09T00:03:32.549Z,6.50
2022-11-09T00:06:01.334Z,6.50
2022-11-09T00:08:29.651Z,6.50
2022-11-09T00:11:03.860Z,6.50
2022-11-09T00:13:31.969Z,6.60
2022-11-09T00:16:00.245Z,6.60
2022-11-09T00:18:28.552Z,6.60
2022-11-09T00:20:56.196Z,6.60
2022-11-09T00:23:24.165Z,6.70
2022-11-09T00:25:51.570Z,6.90
2022-11-09T00:28:19.100Z,6.70
2022-11-09T00:30:46.532Z,6.70
2022-11-09T00:33:14.097Z,7.30
2022-11-09T00:35:41.610Z,6.70
2022-11-09T00:38:09.600Z,6.70
2022-11-09T00:40:37.459Z,6.70
2022-11-09T00:43:05.144Z,6.60
2022-11-09T00:45:32.693Z,6.70
2022-11-09T00:48:00.120Z,6.70
2022-11-09T00:50:27.672Z,6.60
2022-11-09T00:52:55.299Z,6.60
2022-11-09T00:55:24.124Z,6.60
2022-11-09T00:57:51.999Z,6.60
2022-11-09T01:00:21.378Z,6.60
2022-11-09T01:02:50.587Z,6.60
2022-11-09T01:05:18.278Z,6.60
2022-11-09T01:07:46.143Z,6.50
2022-11-09T01:10:13.624Z,6.50
2022-11-09T01:12:41.109Z,6.60
2022-11-09T01:15:09.462Z,6.50
2022-11-09T01:17:37.103Z,6.50
2022-11-09T01:20:04.838Z,6.60
2022-11-09T01:22:32.242Z,6.70
2022-11-09T01:24:59.647Z,6.60
2022-11-09T01:27:27.080Z,6.50
2022-11-09T01:29:54.614Z,6.50
2022-11-09T01:32:22.362Z,6.50
2022-11-09T01:34:49.906Z,6.50
2022-11-09T01:37:17.458Z,6.30
2022-11-09T01:39:45.216Z,6.40
2022-11-09T01:42:12.652Z,6.40
2022-11-09T01:44:40.076Z,6.40
2022-11-09T01:47:23.569Z,6.40
2022-11-09T01:50:00.336Z,6.40
2022-11-09T01:52:41.432Z,6.40
2022-11-09T01:55:22.071Z,6.30
2022-11-09T01:57:57.329Z,6.30
2022-11-09T02:00:24.888Z,6.40
2022-11-09T02:03:02.044Z,6.30
2022-11-09T02:05:33.087Z,6.50
2022-11-09T02:08:02.667Z,6.40
2022-11-09T02:10:53.243Z,6.50
2022-11-09T02:13:23.111Z,6.10
2022-11-09T02:15:51.458Z,6.60
2022-11-09T02:18:19.794Z,6.60
2022-11-09T02:20:53.720Z,6.60
2022-11-09T02:23:21.993Z,6.60
2022-11-09T02:26:05.426Z,6.60
2022-11-09T02:28:33.541Z,6.60
2022-11-09T02:31:02.632Z,6.70
2022-11-09T02:33:30.118Z,6.70
2022-11-09T02:35:57.455Z,6.70
2022-11-09T02:38:24.821Z,6.70
2022-11-09T02:40:53.328Z,6.60
2022-11-09T02:43:21.133Z,6.60
2022-11-09T02:45:48.676Z,6.70
2022-11-09T02:48:16.335Z,6.60
2022-11-09T02:50:43.823Z,6.70
2022-11-09T02:53:11.212Z,6.10
2022-11-09T02:55:38.926Z,6.70
2022-11-09T02:58:06.433Z,6.70
2022-11-09T03:00:33.744Z,6.80
2022-11-09T03:03:01.209Z,6.80
2022-11-09T03:05:28.718Z,6.80
2022-11-09T03:07:56.804Z,6.80
2022-11-09T03:10:24.275Z,6.80
2022-11-09T03:12:51.753Z,6.70
2022-11-09T03:15:19.299Z,6.60
2022-11-09T03:17:46.924Z,6.60
2022-11-09T03:20:14.446Z,6.70
2022-11-09T03:22:41.792Z,6.80
2022-11-09T03:25:09.459Z,6.80
2022-11-09T03:27:36.947Z,6.70
2022-11-09T03:30:04.815Z,6.30
2022-11-09T03:32:32.147Z,6.70
2022-11-09T03:34:59.614Z,6.70
2022-11-09T03:37:27.384Z,6.80
2022-11-09T03:39:54.755Z,6.00
2022-11-09T03:42:22.245Z,6.80
2022-11-09T03:44:49.701Z,6.70
2022-11-09T03:47:17.193Z,7.50
2022-11-09T03:49:44.693Z,7.70
2022-11-09T03:52:12.182Z,6.90
2022-11-09T03:54:39.553Z,7.60
2022-11-09T03:57:07.244Z,6.90
2022-11-09T03:59:34.582Z,6.90
2022-11-09T04:02:02.046Z,6.90
2022-11-09T04:04:29.534Z,6.90
2022-11-09T04:06:57.021Z,6.80
2022-11-09T04:09:24.395Z,6.00
2022-11-09T04:11:51.766Z,6.80
2022-11-09T04:14:19.217Z,6.50
2022-11-09T04:16:46.544Z,7.00
2022-11-09T04:19:13.969Z,7.10
2022-11-09T04:21:41.436Z,7.10
2022-11-09T04:24:08.930Z,7.10
2022-11-09T04:26:36.301Z,7.20
2022-11-09T04:29:03.870Z,7.30
2022-11-09T04:31:31.207Z,7.40
2022-11-09T04:33:58.707Z,7.40
2022-11-09T04:36:26.137Z,7.40
2022-11-09T04:38:53.493Z,7.40
2022-11-09T04:41:20.987Z,7.40
2022-11-09T04:43:48.539Z,7.50
2022-11-09T04:46:15.936Z,7.50
2022-11-09T04:48:44.498Z,7.50
2022-11-09T04:51:12.138Z,7.60
2022-11-09T04:53:40.744Z,7.60
2022-11-09T04:56:08.869Z,7.60
2022-11-09T04:58:36.522Z,7.70
2022-11-09T05:01:10.982Z,7.70
2022-11-09T05:03:39.398Z,7.70
2022-11-09T05:06:26.357Z,7.80
2022-11-09T05:08:54.712Z,7.80
2022-11-09T05:11:23.447Z,7.50
2022-11-09T05:13:53.991Z,7.90
2022-11-09T05:16:23.198Z,7.90
2022-11-09T05:18:51.036Z,8.40
2022-11-09T05:21:18.867Z,8.10
2022-11-09T05:24:03.078Z,8.10
2022-11-09T05:26:38.054Z,7.50
2022-11-09T05:29:08.347Z,8.10
2022-11-09T05:31:37.998Z,8.10
2022-11-09T05:34:07.185Z,8.10
2022-11-09T05:36:34.687Z,8.20
2022-11-09T05:39:02.033Z,8.20
2022-11-09T05:41:29.617Z,8.20
2022-11-09T05:43:57.104Z,8.20
2022-11-09T05:46:25.323Z,8.30
2022-11-09T05:48:52.796Z,8.30
2022-11-09T05:51:20.226Z,8.00
2022-11-09T05:53:47.604Z,8.40
2022-11-09T05:56:15.657Z,8.30
2022-11-09T05:58:43.549Z,8.30
2022-11-09T06:01:17.643Z,8.30
2022-11-09T06:03:46.679Z,8.40
2022-11-09T06:06:16.786Z,8.40
2022-11-09T06:08:48.784Z,8.50
2022-11-09T06:11:36.895Z,8.60
2022-11-09T06:21:13.866Z,8.90
2022-11-09T06:24:36.231Z,8.90
2022-11-09T06:27:08.912Z,9.10
2022-11-09T06:29:37.225Z,9.10
2022-11-09T06:32:33.118Z,8.70
2022-11-09T06:35:00.851Z,8.70
2022-11-09T06:37:30.106Z,8.80
2022-11-09T06:39:59.202Z,8.90
2022-11-09T06:42:29.156Z,8.90
2022-11-09T06:45:02.718Z,8.90
2022-11-09T06:47:30.599Z,9.10
2022-11-09T06:49:58.530Z,8.80
2022-11-09T06:52:26.412Z,9.00
2022-11-09T06:54:55.533Z,9.00
2022-11-09T06:57:23.471Z,9.20
2022-11-09T06:59:52.729Z,9.20
2022-11-09T07:02:23.506Z,9.20
2022-11-09T07:04:54.168Z,9.20
2022-11-09T07:07:27.372Z,9.30
2022-11-09T07:09:56.241Z,9.20
2022-11-09T07:12:25.960Z,9.20
2022-11-09T07:14:53.576Z,9.20
2022-11-09T07:17:35.765Z,9.40
2022-11-09T07:20:34.553Z,9.40
2022-11-09T07:23:03.111Z,9.20
2022-11-09T07:25:36.397Z,9.40
2022-11-09T07:28:09.170Z,10.50
2022-11-09T07:30:48.114Z,9.50
2022-11-09T07:33:23.143Z,9.60
2022-11-09T07:35:51.974Z,9.60
2022-11-09T07:38:20.852Z,9.70
2022-11-09T07:40:50.237Z,9.80
2022-11-09T07:43:18.777Z,9.90
2022-11-09T07:45:58.358Z,9.30
2022-11-09T07:48:28.568Z,7.90
2022-11-09T07:51:11.076Z,10.10
2022-11-09T07:53:39.359Z,9.90
2022-11-09T07:56:12.604Z,10.40
2022-11-09T07:58:41.550Z,10.60
2022-11-09T08:04:29.242Z,10.50
2022-11-09T08:06:57.671Z,10.50
2022-11-09T08:09:26.730Z,10.60
2022-11-09T08:12:02.337Z,10.70
2022-11-09T08:17:35.240Z,9.90
2022-11-09T08:20:13.102Z,10.70
2022-11-09T08:22:45.989Z,10.70
2022-11-09T08:28:15.077Z,10.80
2022-11-09T08:30:59.427Z,10.80
2022-11-09T08:36:49.370Z,10.80
2022-11-09T08:39:25.302Z,10.80
2022-11-09T08:42:22.265Z,10.80
2022-11-09T08:45:05.846Z,10.80
2022-11-09T08:47:40.919Z,10.90
2022-11-09T08:53:11.581Z,11.00
2022-11-09T08:58:59.901Z,10.90
2022-11-09T09:01:28.888Z,11.20
2022-11-09T09:03:59.891Z,11.20
2022-11-09T09:06:31.269Z,10.80
2022-11-09T09:08:59.385Z,11.30
2022-11-09T09:11:28.312Z,11.00
2022-11-09T09:14:02.227Z,11.00
2022-11-09T09:19:55.051Z,11.20
2022-11-09T09:22:24.233Z,10.90
2022-11-09T09:24:59.969Z,11.10
2022-11-09T09:30:12.982Z,10.90
2022-11-09T09:33:07.266Z,10.90
2022-11-09T09:35:57.347Z,11.30
2022-11-09T09:41:59.497Z,11.10
2022-11-09T09:48:26.373Z,11.00
2022-11-09T09:51:15.952Z,11.40
2022-11-09T09:54:00.774Z,11.20
2022-11-09T09:56:50.238Z,11.10
2022-11-09T10:00:04.379Z,11.20
2022-11-09T10:03:23.441Z,11.20
2022-11-09T10:09:27.388Z,11.10
2022-11-09T10:19:06.726Z,11.20
2022-11-09T10:22:03.473Z,11.20
2022-11-09T10:27:52.800Z,11.20
2022-11-09T10:30:25.924Z,11.20
2022-11-09T10:33:25.754Z,11.20
2022-11-09T10:36:53.410Z,11.20
2022-11-09T10:42:13.037Z,11.20
2022-11-09T10:50:56.287Z,11.10
2022-11-09T10:56:33.035Z,11.10
2022-11-09T11:09:25.338Z,11.10
2022-11-09T11:16:00.557Z,10.90
2022-11-09T11:19:07.549Z,11.10
2022-11-09T11:25:45.164Z,11.20
2022-11-09T11:42:03.630Z,10.80
2022-11-09T11:44:59.461Z,11.30
2022-11-09T11:48:26.508Z,11.30
2022-11-09T11:51:21.608Z,11.30
2022-11-09T11:54:15.691Z,11.30
2022-11-09T11:57:05.781Z,11.30
2022-11-09T12:00:08.012Z,9.50
2022-11-09T12:03:03.023Z,11.30
2022-11-09T12:06:10.953Z,11.30
2022-11-09T12:08:49.682Z,10.30
2022-11-09T12:11:43.603Z,11.50
2022-11-09T12:14:35.077Z,11.50
2022-11-09T12:17:12.254Z,11.40
2022-11-09T12:20:06.488Z,11.10
2022-11-09T12:22:45.851Z,11.30
2022-11-09T12:26:14.844Z,11.30
2022-11-09T12:29:17.376Z,11.30
2022-11-09T12:31:55.990Z,11.30
2022-11-09T12:35:15.546Z,11.30
2022-11-09T12:38:06.539Z,11.30
2022-11-09T12:40:39.404Z,11.30
2022-11-09T12:43:39.986Z,11.30
2022-11-09T12:46:10.486Z,11.20
2022-11-09T12:48:40.111Z,11.10
2022-11-09T12:51:09.120Z,11.10
2022-11-09T12:53:40.047Z,11.20
2022-11-09T12:56:57.034Z,11.20
2022-11-09T12:59:27.233Z,11.20
2022-11-09T13:01:57.510Z,11.20
2022-11-09T13:04:26.390Z,11.10
2022-11-09T13:07:20.577Z,11.10
2022-11-09T13:09:55.420Z,10.80
2022-11-09T13:12:39.794Z,11.10
2022-11-09T13:15:26.644Z,11.20
2022-11-09T13:18:02.465Z,11.10
2022-11-09T13:20:54.614Z,11.10
2022-11-09T13:24:00.868Z,11.10
2022-11-09T13:26:32.970Z,11.10
2022-11-09T13:29:09.383Z,11.10
2022-11-09T13:32:02.336Z,11.10
2022-11-09T13:34:55.794Z,11.50
2022-11-09T13:37:41.910Z,11.10
2022-11-09T13:40:31.368Z,11.10
2022-11-09T13:43:10.496Z,11.10
2022-11-09T13:45:46.731Z,11.20
2022-11-09T13:48:42.172Z,11.20
2022-11-09T13:51:39.556Z,11.20
2022-11-09T13:54:28.705Z,11.20
2022-11-09T13:57:07.496Z,11.20
2022-11-09T13:59:47.647Z,11.20
2022-11-09T14:02:24.167Z,11.20
2022-11-09T14:04:51.560Z,11.40
2022-11-09T14:07:33.126Z,11.20
2022-11-09T14:10:07.872Z,11.20
2022-11-09T14:13:05.471Z,11.20
2022-11-09T14:15:51.821Z,11.20
2022-11-09T14:18:49.592Z,10.80
2022-11-09T14:21:43.812Z,11.00
2022-11-09T14:24:17.339Z,11.20
2022-11-09T14:27:05.229Z,11.20
2022-11-09T14:29:33.370Z,10.80
2022-11-09T14:32:22.332Z,11.20
2022-11-09T14:34:49.745Z,11.20
2022-11-09T14:37:17.867Z,11.30
2022-11-09T14:39:50.213Z,11.30
2022-11-09T14:42:20.881Z,11.40
2022-11-09T14:44:49.495Z,11.40
2022-11-09T14:47:19.943Z,11.40
2022-11-09T14:49:48.306Z,11.40
2022-11-09T14:52:24.679Z,11.30
2022-11-09T14:54:53.227Z,11.30
2022-11-09T14:57:22.002Z,11.30
2022-11-09T14:59:49.673Z,11.30
2022-11-09T15:02:19.939Z,11.30
2022-11-09T15:05:03.078Z,11.40
2022-11-09T15:07:35.508Z,11.30
2022-11-09T15:10:06.653Z,11.30
2022-11-09T15:12:39.215Z,11.30
2022-11-09T15:20:45.863Z,11.30
2022-11-09T15:23:51.965Z,11.20
2022-11-09T15:26:36.958Z,11.20
2022-11-09T15:29:36.840Z,11.10
2022-11-09T15:32:20.686Z,11.10
2022-11-09T15:35:16.762Z,11.10
2022-11-09T15:37:50.971Z,11.10
2022-11-09T15:40:24.580Z,11.10
2022-11-09T15:42:55.586Z,11.10
2022-11-09T15:45:23.306Z,11.10
2022-11-09T15:50:40.269Z,11.10
2022-11-09T15:53:10.005Z,11.10
2022-11-09T15:55:42.373Z,11.10
2022-11-09T15:58:19.614Z,11.10
2022-11-09T16:03:31.528Z,11.20
2022-11-09T16:06:03.386Z,11.10
2022-11-09T16:11:12.930Z,11.00
2022-11-09T16:13:40.808Z,11.00
2022-11-09T16:16:09.997Z,11.00
2022-11-09T16:18:38.681Z,11.00
2022-11-09T16:21:12.746Z,11.00
2022-11-09T16:23:45.217Z,11.00
2022-11-09T16:26:19.029Z,10.90
2022-11-09T16:28:47.383Z,10.90
2022-11-09T16:31:15.300Z,11.00
2022-11-09T16:33:44.875Z,10.90
2022-11-09T16:39:20.044Z,10.90
2022-11-09T16:41:55.407Z,11.00
2022-11-09T16:44:38.443Z,11.00
2022-11-09T16:47:17.972Z,10.90
2022-11-09T16:52:35.558Z,10.80
2022-11-09T16:55:10.825Z,10.80
2022-11-09T16:57:38.421Z,10.90
2022-11-09T17:00:08.883Z,10.90
2022-11-09T17:08:06.968Z,10.90
2022-11-09T17:13:21.949Z,11.00
2022-11-09T17:15:52.906Z,10.90
2022-11-09T17:18:32.104Z,10.90
2022-11-09T17:21:01.305Z,10.90
2022-11-09T17:23:34.333Z,10.90
2022-11-09T17:26:03.968Z,11.00
2022-11-09T17:28:37.645Z,11.30
2022-11-09T17:31:25.961Z,10.90
2022-11-09T17:34:01.111Z,10.90
2022-11-09T17:47:20.884Z,10.90
2022-11-09T17:56:32.031Z,11.00
2022-11-09T17:59:06.666Z,11.00
2022-11-09T18:01:41.162Z,11.00
2022-11-09T18:09:45.295Z,11.10
2022-11-09T18:12:14.397Z,11.10
2022-11-09T18:17:26.984Z,11.10
2022-11-09T18:22:50.801Z,11.00
2022-11-09T18:30:46.497Z,11.00
2022-11-09T18:33:14.532Z,11.00
2022-11-09T18:35:42.624Z,11.00
2022-11-09T18:38:36.668Z,11.10
2022-11-09T18:41:10.916Z,11.00
2022-11-09T18:43:40.266Z,11.00
2022-11-09T18:46:12.982Z,11.00
2022-11-09T19:09:27.294Z,11.00
2022-11-09T19:11:58.598Z,11.10
2022-11-09T19:14:54.468Z,11.10
2022-11-09T19:17:25.516Z,11.10
2022-11-09T19:22:39.359Z,11.10
2022-11-09T19:25:08.501Z,11.10
2022-11-09T19:33:17.813Z,11.20
2022-11-09T19:36:31.261Z,11.10
2022-11-09T19:39:03.823Z,11.20
2022-11-09T20:20:36.040Z,11.20
2022-11-09T21:05:31.904Z,11.20
2022-11-09T21:08:35.496Z,11.10
2022-11-09T21:11:20.820Z,11.10
2022-11-09T21:52:44.588Z,10.80
2022-11-09T21:55:16.464Z,10.80
2022-11-09T21:57:46.562Z,10.80
2022-11-09T22:00:17.469Z,10.90
2022-11-09T22:02:45.910Z,10.90
2022-11-09T22:05:14.969Z,10.90
2022-11-09T22:07:46.303Z,10.90
2022-11-09T22:10:13.954Z,10.90
2022-11-09T22:12:59.619Z,11.00
2022-11-09T22:15:59.954Z,11.00
2022-11-09T22:18:52.852Z,11.00
2022-11-09T22:21:24.527Z,11.00
2022-11-09T22:23:52.325Z,10.90
2022-11-09T22:26:20.067Z,11.00
2022-11-09T22:28:48.263Z,11.00
2022-11-09T22:31:17.974Z,11.00
2022-11-09T22:33:56.131Z,11.00
2022-11-09T22:39:09.021Z,11.10
2022-11-09T22:41:36.911Z,11.10
2022-11-09T22:46:59.369Z,11.10
2022-11-09T22:52:17.934Z,11.10
2022-11-09T22:54:47.858Z,11.10
2022-11-09T22:57:20.569Z,11.10
2022-11-09T22:59:48.869Z,11.10
2022-11-09T23:05:13.324Z,11.10
2022-11-09T23:07:43.206Z,11.10
2022-11-09T23:10:13.192Z,11.10
2022-11-09T23:21:24.162Z,11.00
2022-11-09T23:35:51.217Z,10.90
